Flight Track Log - Related Links

Times and Time Zones

All times are in EDT time to prevent confusion due to time zone crossing. See the EJA951 flight status page for this flight to view local times or setup timezone preferences in your user account.

Time Position Orientation Groundspeed Altitude Reporting Facility
EDT Latitude Longitude Course Direction KTS MPH feet Rate Location/Type
Mon 01:58:34 PM 39.2736 -106.8967 252° West 294 338 10,900  Level Denver Center
Mon 01:59:36 PM 39.2956 -107.0097 284° West 279 321 14,800 3,435 Climbing Denver Center
Mon 02:00:38 PM 39.3467 -107.1094 304° West 324 373 18,000 2,516 Climbing Denver Center
Mon 02:01:40 PM 39.3675 -107.2039 286° West 347 399 20,000 2,371 Climbing Denver Center
Mon 02:02:42 PM 39.3386 -107.3642 257° West 377 434 22,900 2,419 Climbing Denver Center
Mon 02:03:44 PM 39.3136 -107.4950 256° West 388 447 25,000 2,081 Climbing Denver Center
Mon 02:04:00 PM 39.2742 -107.6867 252° West  Level FlightAware Approximate
Mon 02:04:46 PM 39.2825 -107.6572 256° West 408 470 27,200  Level Denver Center
Mon 02:05:48 PM 39.2611 -107.8006 259° West 422 486 29,000 1,742 Climbing Denver Center
Mon 02:06:50 PM 39.2481 -107.9753 265° West 435 501 30,800 1,694 Climbing Denver Center
Mon 02:07:52 PM 39.2350 -108.1303 264° West 449 517 32,500 1,694 Climbing Denver Center
Mon 02:08:54 PM 39.2192 -108.3147 264° West 458 527 34,300 1,645 Climbing Denver Center
Mon 02:09:56 PM 39.2047 -108.4747 263° West 456 525 35,900 1,645 Climbing Denver Center
Mon 02:10:58 PM 39.1897 -108.6614 264° West 465 535 37,700 1,597 Climbing Denver Center
Mon 02:12:00 PM 39.1747 -108.8183 263° West 461 531 39,200 1,113 Climbing Denver Center
Mon 02:13:02 PM 39.1614 -108.9689 264° West 444 511 40,000 387 Climbing Denver Center
Mon 02:14:04 PM 39.1439 -109.1503 263° West 450 518 40,000  Level Denver Center
Mon 02:15:06 PM 39.1300 -109.3075 264° West 459 528 40,000  Level Denver Center
Mon 02:16:08 PM 39.1122 -109.4911 263° West 461 531 40,000  Level Denver Center
Mon 02:17:10 PM 39.0978 -109.6489 263° West 463 533 40,000  Level Denver Center
Mon 02:18:12 PM 39.0806 -109.8328 263° West 463 533 40,000  Level Denver Center
Mon 02:18:56 PM 39.0681 -109.9372 261° West 461 531 40,000  Level Salt Lake Center
Mon 02:19:58 PM 39.0514 -110.1211 263° West 462 532 40,000  Level Salt Lake Center
Mon 02:21:00 PM 39.0344 -110.2775 262° West 462 532 40,000  Level Salt Lake Center
Mon 02:22:02 PM 39.0161 -110.4617 263° West 462 532 40,000  Level Salt Lake Center
Mon 02:23:04 PM 38.9983 -110.6203 262° West 465 535 40,000  Level Salt Lake Center
Mon 02:24:06 PM 38.9797 -110.7764 261° West 465 535 40,000  Level Salt Lake Center
Mon 02:25:08 PM 38.9611 -110.9717 263° West 467 537 40,000  Level Salt Lake Center
Mon 02:26:10 PM 38.9428 -111.1358 262° West 467 537 40,000  Level Salt Lake Center
Mon 02:27:12 PM 38.9244 -111.3025 262° West 467 537 40,000  Level Salt Lake Center
Mon 02:28:14 PM 38.9050 -111.4683 261° West 471 542 40,000  Level Salt Lake Center
Mon 02:29:15 PM 38.8858 -111.6369 262° West 476 548 40,000  Level Salt Lake Center
Mon 02:30:17 PM 38.8653 -111.8039 261° West 476 548 40,000  Level Salt Lake Center
Mon 02:31:19 PM 38.8442 -111.9733 261° West 478 550 40,000  Level Salt Lake Center
Mon 02:32:21 PM 38.8225 -112.1708 262° West 473 544 40,000  Level Salt Lake Center
Mon 02:33:23 PM 38.8008 -112.3322 260° West 467 537 40,000  Level Salt Lake Center
Mon 02:34:25 PM 38.7831 -112.4947 262° West 465 535 40,000  Level Salt Lake Center
Mon 02:35:26 PM 38.7619 -112.6575 261° West 465 535 40,000  Level Salt Lake Center
Mon 02:36:28 PM 38.7406 -112.8200 260° West 465 535 40,000  Level Salt Lake Center
Mon 02:37:30 PM 38.7203 -112.9825 261° West 466 536 40,000  Level Salt Lake Center
Mon 02:38:32 PM 38.6953 -113.1786 261° West 466 536 40,000  Level Salt Lake Center
Mon 02:39:34 PM 38.6731 -113.3478 261° West 478 550 40,000  Level Salt Lake Center
Mon 02:40:35 PM 38.6511 -113.5131 260° West 476 548 40,000  Level Salt Lake Center
Mon 02:41:37 PM 38.6286 -113.6850 261° West 485 558 40,000  Level Salt Lake Center
Mon 02:42:39 PM 38.6058 -113.8550 260° West 487 560 40,000  Level Salt Lake Center
Mon 02:43:41 PM 38.5825 -114.0256 260° West 487 560 40,000  Level Salt Lake Center
Mon 02:44:43 PM 38.5542 -114.2300 260° West 488 562 40,000  Level Salt Lake Center
Mon 02:45:44 PM 38.5294 -114.4028 260° West 491 565 40,000  Level Salt Lake Center
Mon 02:46:46 PM 38.5044 -114.5753 260° West 493 567 40,000  Level Salt Lake Center
Mon 02:47:48 PM 38.4803 -114.7458 260° West 493 567 40,000  Level Salt Lake Center
Mon 02:48:50 PM 38.4553 -114.9161 259° West 493 567 40,000  Level Salt Lake Center
Mon 02:49:52 PM 38.4308 -115.0836 259° West 485 558 40,000  Level Salt Lake Center
Mon 02:50:53 PM 38.4008 -115.2844 259° West 482 555 40,000  Level Salt Lake Center
Mon 02:51:55 PM 38.3756 -115.4517 259° West 486 559 40,000  Level Salt Lake Center
Mon 02:52:57 PM 38.3508 -115.6208 259° West 486 559 40,000  Level Salt Lake Center
Mon 02:53:59 PM 38.3244 -115.7903 259° West 486 559 40,000  Level Salt Lake Center
Mon 02:55:00 PM 38.2989 -115.9597 259° West 487 560 40,000  Level Salt Lake Center
Mon 02:56:02 PM 38.2717 -116.1289 258° West 487 560 40,000  Level Salt Lake Center
Mon 02:57:04 PM 38.2447 -116.2986 259° West 487 560 40,000  Level Salt Lake Center
Mon 02:58:06 PM 38.2125 -116.5003 259° West 485 558 40,000 -195 Level Salt Lake Center
Mon 02:59:07 PM 38.1856 -116.6689 259° West 485 558 39,600 -780 Descending Salt Lake Center
Mon 03:00:09 PM 38.1581 -116.8394 258° West 488 562 38,400 -774 Descending Salt Lake Center
Mon 03:01:11 PM 38.1294 -117.0142 258° West 499 574 38,000 -195 Descending Salt Lake Center
Mon 03:02:12 PM 38.0989 -117.1961 258° West 501 577 38,000  Level Salt Lake Center
Mon 03:03:14 PM 38.0700 -117.3769 259° West 504 580 38,000  Level Salt Lake Center
Mon 03:04:16 PM 38.0408 -117.5511 258° West 503 579 38,000  Level Salt Lake Center
Mon 03:05:18 PM 38.0111 -117.7261 258° West 504 580 38,000  Level Salt Lake Center
Mon 03:06:20 PM 37.9892 -117.9017 261° West 504 580 38,000  Level Salt Lake Center
Mon 03:07:21 PM 37.9708 -118.0833 263° West 515 593 38,000  Level Salt Lake Center
Mon 03:08:23 PM 37.9508 -118.2644 262° West 516 594 38,000  Level Salt Lake Center
Mon 03:09:25 PM 37.9275 -118.4825 262° West 520 598 38,000  Level Salt Lake Center
Mon 03:10:47 PM 37.9033 -118.6994 262° West 520 598 38,000  Level Oakland Center
Mon 03:11:49 PM 37.8781 -118.9161 262° West 519 597 38,000  Level Oakland Center
Mon 03:12:50 PM 37.8578 -119.0886 262° West 518 596 38,000  Level Oakland Center
Mon 03:13:52 PM 37.8364 -119.2706 262° West 523 602 38,000  Level Oakland Center
Mon 03:14:53 PM 37.8144 -119.4525 261° West 523 602 38,000  Level Oakland Center
Mon 03:15:55 PM 37.7942 -119.6331 262° West 521 600 38,000 -488 Level Oakland Center
Mon 03:16:56 PM 37.7722 -119.8133 261° West 517 595 37,000 -1,122 Descending Oakland Center
Mon 03:17:58 PM 37.7500 -119.9931 261° West 517 595 35,700 -1,415 Descending Oakland Center
Mon 03:18:59 PM 37.7267 -120.1753 261° West 522 601 34,100 -1,171 Descending Oakland Center
Mon 03:20:01 PM 37.7000 -120.3933 261° West 523 602 33,300 -1,024 Descending Oakland Center
Mon 03:21:02 PM 37.6767 -120.5767 261° West 526 605 32,000 -1,024 Descending Oakland Center
Mon 03:22:04 PM 37.6542 -120.7469 261° West 495 570 31,200 -1,707 Descending Oakland Center
Mon 03:23:05 PM 37.6336 -120.9047 261° West 460 529 28,500 -2,938 Descending Oakland Center
Mon 03:23:40 PM 37.6167 -121.0000 257° West 432 497 26,500 -3,221 Descending Northern Cal TRACON
Mon 03:24:40 PM 37.6000 -121.1500 262° West 425 489 23,400 -2,950 Descending Northern Cal TRACON
Mon 03:25:40 PM 37.5833 -121.2833 261° West 404 465 20,600 -2,667 Descending Northern Cal TRACON
Mon 03:27:40 PM 37.4667 -121.5333 240° Southwest 449 517 15,400 -2,333 Descending Northern Cal TRACON
Mon 03:28:40 PM 37.5167 -121.6500 298° West 368 423 13,600 -1,700 Descending Northern Cal TRACON
Mon 03:29:40 PM 37.5667 -121.7500 302° West 311 358 12,000 -1,850 Descending Northern Cal TRACON
Mon 03:30:40 PM 37.5333 -121.8167 238° Southwest 298 343 9,900 -1,950 Descending Northern Cal TRACON
Mon 03:31:40 PM 37.4833 -121.9000 233° Southwest 289 333 8,100 -1,950 Descending Northern Cal TRACON
Mon 03:32:40 PM 37.5000 -121.9833 284° West 275 316 6,000 -1,900 Descending Northern Cal TRACON
Mon 03:33:40 PM 37.5167 -122.0667 284° West 240 276 4,300 -1,421 Descending Northern Cal TRACON
Mon 03:34:34 PM 37.5333 -122.1333 288° West 207 238 3,300 -1,010 Descending Northern Cal TRACON
Mon 03:35:21 PM 37.5542 -122.1742 303° West 219 252 2,600 -771 Descending Oakland Center
Mon 03:36:23 PM 37.5742 -122.2344 293° West 201 231 1,900 -683 Descending Oakland Center
Mon 03:37:24 PM 37.5944 -122.3003 291° West 182 209 1,200 -738 Descending Oakland Center
Mon 03:38:25 PM 37.6075 -122.3447 290° West 158 182 400 -488 Descending Oakland Center
Mon 03:39:27 PM 37.6197 -122.3836 292° West 152 175 200 -194 Descending Oakland Center
Mon 03:41:00 PM 37.6167 -122.3667 90° East  Level FlightAware Approximate

Login

Don't have an account? Register now (free) for customized features, flight alerts, and more!